sensor_id;sensor_type;location;lat;lon;timestamp;P1;durP1;ratioP1;P2;durP2;ratioP2
33188;SDS011;52601;53.070;10.600;2022-08-20T00:01:16;4.93;;;3.38;;
33188;SDS011;52601;53.070;10.600;2022-08-20T00:04:02;4.93;;;3.37;;
33188;SDS011;52601;53.070;10.600;2022-08-20T00:06:51;4.97;;;3.17;;
33188;SDS011;52601;53.070;10.600;2022-08-20T00:09:36;7.57;;;3.65;;
33188;SDS011;52601;53.070;10.600;2022-08-20T00:12:21;5.17;;;3.50;;
33188;SDS011;52601;53.070;10.600;2022-08-20T00:15:07;4.63;;;3.50;;
33188;SDS011;52601;53.070;10.600;2022-08-20T00:17:54;7.35;;;4.05;;
33188;SDS011;52601;53.070;10.600;2022-08-20T00:20:43;6.05;;;4.18;;
33188;SDS011;52601;53.070;10.600;2022-08-20T00:23:31;4.70;;;3.22;;
33188;SDS011;52601;53.070;10.600;2022-08-20T00:26:17;5.60;;;3.65;;
33188;SDS011;52601;53.070;10.600;2022-08-20T00:29:02;4.50;;;3.17;;
33188;SDS011;52601;53.070;10.600;2022-08-20T00:31:48;5.18;;;3.80;;
33188;SDS011;52601;53.070;10.600;2022-08-20T00:34:34;6.43;;;3.90;;
33188;SDS011;52601;53.070;10.600;2022-08-20T00:37:20;4.97;;;3.33;;
33188;SDS011;52601;53.070;10.600;2022-08-20T00:40:06;6.57;;;4.63;;
33188;SDS011;52601;53.070;10.600;2022-08-20T00:43:23;5.28;;;3.42;;
33188;SDS011;52601;53.070;10.600;2022-08-20T00:46:22;4.60;;;3.10;;
33188;SDS011;52601;53.070;10.600;2022-08-20T00:49:18;5.63;;;3.58;;
33188;SDS011;52601;53.070;10.600;2022-08-20T00:52:13;4.10;;;3.50;;
33188;SDS011;52601;53.070;10.600;2022-08-20T00:55:02;4.65;;;3.38;;
33188;SDS011;52601;53.070;10.600;2022-08-20T00:57:50;4.82;;;2.95;;
33188;SDS011;52601;53.070;10.600;2022-08-20T01:00:46;5.07;;;3.47;;
33188;SDS011;52601;53.070;10.600;2022-08-20T01:03:33;5.60;;;3.67;;
33188;SDS011;52601;53.070;10.600;2022-08-20T01:06:20;7.82;;;4.05;;
33188;SDS011;52601;53.070;10.600;2022-08-20T01:09:05;6.10;;;4.10;;
33188;SDS011;52601;53.070;10.600;2022-08-20T01:11:52;8.23;;;4.85;;
33188;SDS011;52601;53.070;10.600;2022-08-20T01:14:38;6.28;;;3.15;;
33188;SDS011;52601;53.070;10.600;2022-08-20T01:17:30;3.70;;;2.75;;
33188;SDS011;52601;53.070;10.600;2022-08-20T01:20:23;5.35;;;3.38;;
33188;SDS011;52601;53.070;10.600;2022-08-20T01:23:23;5.57;;;3.17;;
33188;SDS011;52601;53.070;10.600;2022-08-20T01:26:22;6.75;;;3.40;;
33188;SDS011;52601;53.070;10.600;2022-08-20T01:29:13;5.55;;;3.60;;
33188;SDS011;52601;53.070;10.600;2022-08-20T01:32:02;4.55;;;3.47;;
33188;SDS011;52601;53.070;10.600;2022-08-20T01:34:49;6.50;;;3.30;;
33188;SDS011;52601;53.070;10.600;2022-08-20T01:37:34;5.30;;;3.97;;
33188;SDS011;52601;53.070;10.600;2022-08-20T01:40:24;3.73;;;3.03;;
33188;SDS011;52601;53.070;10.600;2022-08-20T01:43:22;5.88;;;3.60;;
33188;SDS011;52601;53.070;10.600;2022-08-20T01:46:09;4.57;;;3.33;;
33188;SDS011;52601;53.070;10.600;2022-08-20T01:48:56;6.38;;;4.65;;
33188;SDS011;52601;53.070;10.600;2022-08-20T01:51:43;5.05;;;3.08;;
33188;SDS011;52601;53.070;10.600;2022-08-20T01:54:33;5.72;;;3.72;;
33188;SDS011;52601;53.070;10.600;2022-08-20T01:57:19;7.70;;;3.95;;
33188;SDS011;52601;53.070;10.600;2022-08-20T02:00:11;5.30;;;3.63;;
33188;SDS011;52601;53.070;10.600;2022-08-20T02:03:04;4.05;;;3.25;;
33188;SDS011;52601;53.070;10.600;2022-08-20T02:05:51;5.32;;;3.90;;
33188;SDS011;52601;53.070;10.600;2022-08-20T02:08:37;6.40;;;3.90;;
33188;SDS011;52601;53.070;10.600;2022-08-20T02:11:23;6.35;;;3.63;;
33188;SDS011;52601;53.070;10.600;2022-08-20T02:14:09;5.05;;;3.85;;
33188;SDS011;52601;53.070;10.600;2022-08-20T02:16:55;5.28;;;4.13;;
33188;SDS011;52601;53.070;10.600;2022-08-20T02:19:43;6.95;;;4.38;;
33188;SDS011;52601;53.070;10.600;2022-08-20T02:22:43;3.92;;;2.75;;
33188;SDS011;52601;53.070;10.600;2022-08-20T02:25:39;6.50;;;3.75;;
33188;SDS011;52601;53.070;10.600;2022-08-20T02:28:27;5.53;;;3.78;;
33188;SDS011;52601;53.070;10.600;2022-08-20T02:31:13;4.63;;;3.23;;
33188;SDS011;52601;53.070;10.600;2022-08-20T02:33:59;7.07;;;4.13;;
33188;SDS011;52601;53.070;10.600;2022-08-20T02:37:05;5.75;;;4.03;;
33188;SDS011;52601;53.070;10.600;2022-08-20T02:39:51;6.00;;;4.32;;
33188;SDS011;52601;53.070;10.600;2022-08-20T02:42:37;5.80;;;4.18;;
33188;SDS011;52601;53.070;10.600;2022-08-20T02:45:23;8.20;;;4.32;;
33188;SDS011;52601;53.070;10.600;2022-08-20T02:48:10;6.78;;;4.22;;
33188;SDS011;52601;53.070;10.600;2022-08-20T02:51:03;3.90;;;3.20;;
33188;SDS011;52601;53.070;10.600;2022-08-20T02:53:50;6.07;;;3.70;;
33188;SDS011;52601;53.070;10.600;2022-08-20T02:56:36;6.10;;;3.75;;
33188;SDS011;52601;53.070;10.600;2022-08-20T02:59:22;6.38;;;4.43;;
33188;SDS011;52601;53.070;10.600;2022-08-20T03:02:07;7.22;;;4.70;;
33188;SDS011;52601;53.070;10.600;2022-08-20T03:04:53;5.35;;;3.67;;
33188;SDS011;52601;53.070;10.600;2022-08-20T03:07:42;6.60;;;4.38;;
33188;SDS011;52601;53.070;10.600;2022-08-20T03:10:33;4.28;;;2.92;;
33188;SDS011;52601;53.070;10.600;2022-08-20T03:13:21;4.95;;;3.55;;
33188;SDS011;52601;53.070;10.600;2022-08-20T03:16:07;5.32;;;3.95;;
33188;SDS011;52601;53.070;10.600;2022-08-20T03:18:53;5.63;;;3.65;;
33188;SDS011;52601;53.070;10.600;2022-08-20T03:21:39;4.32;;;2.80;;
33188;SDS011;52601;53.070;10.600;2022-08-20T03:24:24;5.72;;;3.17;;
33188;SDS011;52601;53.070;10.600;2022-08-20T03:27:11;5.32;;;4.07;;
33188;SDS011;52601;53.070;10.600;2022-08-20T03:29:57;4.80;;;3.53;;
33188;SDS011;52601;53.070;10.600;2022-08-20T03:32:44;5.70;;;4.35;;
33188;SDS011;52601;53.070;10.600;2022-08-20T03:35:30;6.65;;;3.63;;
33188;SDS011;52601;53.070;10.600;2022-08-20T03:38:17;6.68;;;4.47;;
33188;SDS011;52601;53.070;10.600;2022-08-20T03:41:17;7.45;;;4.50;;
33188;SDS011;52601;53.070;10.600;2022-08-20T03:44:03;7.85;;;5.00;;
33188;SDS011;52601;53.070;10.600;2022-08-20T03:46:50;6.68;;;4.65;;
33188;SDS011;52601;53.070;10.600;2022-08-20T03:49:35;8.25;;;4.32;;
33188;SDS011;52601;53.070;10.600;2022-08-20T03:52:21;7.65;;;4.97;;
33188;SDS011;52601;53.070;10.600;2022-08-20T03:55:07;6.90;;;4.20;;
33188;SDS011;52601;53.070;10.600;2022-08-20T03:57:54;7.03;;;4.72;;
33188;SDS011;52601;53.070;10.600;2022-08-20T04:00:48;7.10;;;5.07;;
33188;SDS011;52601;53.070;10.600;2022-08-20T04:03:35;11.02;;;5.63;;
33188;SDS011;52601;53.070;10.600;2022-08-20T04:06:21;5.97;;;3.75;;
33188;SDS011;52601;53.070;10.600;2022-08-20T04:09:06;7.05;;;4.68;;
33188;SDS011;52601;53.070;10.600;2022-08-20T04:11:55;6.15;;;4.45;;
33188;SDS011;52601;53.070;10.600;2022-08-20T04:14:44;6.97;;;4.07;;
33188;SDS011;52601;53.070;10.600;2022-08-20T04:17:29;7.10;;;4.20;;
33188;SDS011;52601;53.070;10.600;2022-08-20T04:20:18;5.78;;;4.03;;
33188;SDS011;52601;53.070;10.600;2022-08-20T04:23:07;8.07;;;4.18;;
33188;SDS011;52601;53.070;10.600;2022-08-20T04:28:40;5.55;;;3.90;;
33188;SDS011;52601;53.070;10.600;2022-08-20T04:31:25;7.07;;;4.45;;
33188;SDS011;52601;53.070;10.600;2022-08-20T04:34:17;7.35;;;4.55;;
33188;SDS011;52601;53.070;10.600;2022-08-20T04:37:03;6.90;;;4.17;;
33188;SDS011;52601;53.070;10.600;2022-08-20T04:40:04;5.25;;;4.13;;
33188;SDS011;52601;53.070;10.600;2022-08-20T04:43:14;5.43;;;3.70;;
33188;SDS011;52601;53.070;10.600;2022-08-20T04:46:01;6.13;;;4.35;;
33188;SDS011;52601;53.070;10.600;2022-08-20T04:48:50;6.20;;;4.22;;
33188;SDS011;52601;53.070;10.600;2022-08-20T04:51:36;6.32;;;3.90;;
33188;SDS011;52601;53.070;10.600;2022-08-20T04:54:21;5.65;;;3.47;;
33188;SDS011;52601;53.070;10.600;2022-08-20T04:57:07;5.07;;;3.85;;
33188;SDS011;52601;53.070;10.600;2022-08-20T04:59:53;5.53;;;3.78;;
33188;SDS011;52601;53.070;10.600;2022-08-20T05:02:43;4.32;;;3.55;;
33188;SDS011;52601;53.070;10.600;2022-08-20T05:05:29;4.90;;;3.45;;
33188;SDS011;52601;53.070;10.600;2022-08-20T05:08:15;6.73;;;3.70;;
33188;SDS011;52601;53.070;10.600;2022-08-20T05:11:04;4.80;;;3.63;;
33188;SDS011;52601;53.070;10.600;2022-08-20T05:14:11;7.50;;;3.90;;
33188;SDS011;52601;53.070;10.600;2022-08-20T05:17:01;4.32;;;3.28;;
33188;SDS011;52601;53.070;10.600;2022-08-20T05:19:50;5.45;;;3.88;;
33188;SDS011;52601;53.070;10.600;2022-08-20T05:22:36;6.57;;;4.28;;
33188;SDS011;52601;53.070;10.600;2022-08-20T05:25:22;7.40;;;4.20;;
33188;SDS011;52601;53.070;10.600;2022-08-20T05:28:11;5.65;;;3.55;;
33188;SDS011;52601;53.070;10.600;2022-08-20T05:31:01;5.22;;;3.15;;
33188;SDS011;52601;53.070;10.600;2022-08-20T05:33:46;4.40;;;3.20;;
33188;SDS011;52601;53.070;10.600;2022-08-20T05:36:36;9.80;;;3.58;;
33188;SDS011;52601;53.070;10.600;2022-08-20T05:39:31;6.90;;;3.17;;
33188;SDS011;52601;53.070;10.600;2022-08-20T05:42:21;5.22;;;3.17;;
33188;SDS011;52601;53.070;10.600;2022-08-20T05:45:06;3.55;;;2.70;;
33188;SDS011;52601;53.070;10.600;2022-08-20T05:47:55;4.43;;;3.10;;
33188;SDS011;52601;53.070;10.600;2022-08-20T05:53:28;4.47;;;2.97;;
33188;SDS011;52601;53.070;10.600;2022-08-20T05:56:13;3.75;;;2.65;;
33188;SDS011;52601;53.070;10.600;2022-08-20T05:58:59;2.90;;;2.25;;
33188;SDS011;52601;53.070;10.600;2022-08-20T06:01:48;5.25;;;2.65;;
33188;SDS011;52601;53.070;10.600;2022-08-20T06:04:34;4.30;;;2.17;;
33188;SDS011;52601;53.070;10.600;2022-08-20T06:07:19;3.53;;;2.50;;
33188;SDS011;52601;53.070;10.600;2022-08-20T06:10:05;2.83;;;2.40;;
33188;SDS011;52601;53.070;10.600;2022-08-20T06:12:53;3.25;;;2.55;;
33188;SDS011;52601;53.070;10.600;2022-08-20T06:15:38;2.38;;;2.13;;
33188;SDS011;52601;53.070;10.600;2022-08-20T06:18:24;4.03;;;2.50;;
33188;SDS011;52601;53.070;10.600;2022-08-20T06:21:12;3.15;;;2.33;;
33188;SDS011;52601;53.070;10.600;2022-08-20T06:23:58;5.80;;;3.55;;
33188;SDS011;52601;53.070;10.600;2022-08-20T06:26:46;3.60;;;2.63;;
33188;SDS011;52601;53.070;10.600;2022-08-20T06:29:31;3.50;;;2.50;;
33188;SDS011;52601;53.070;10.600;2022-08-20T06:32:18;3.35;;;2.30;;
33188;SDS011;52601;53.070;10.600;2022-08-20T06:35:17;6.63;;;3.30;;
33188;SDS011;52601;53.070;10.600;2022-08-20T06:38:04;2.88;;;2.60;;
33188;SDS011;52601;53.070;10.600;2022-08-20T06:40:49;4.13;;;2.63;;
33188;SDS011;52601;53.070;10.600;2022-08-20T06:43:35;4.47;;;2.70;;
33188;SDS011;52601;53.070;10.600;2022-08-20T06:46:20;4.38;;;2.75;;
33188;SDS011;52601;53.070;10.600;2022-08-20T06:51:52;4.25;;;2.22;;
33188;SDS011;52601;53.070;10.600;2022-08-20T06:54:38;3.47;;;2.50;;
33188;SDS011;52601;53.070;10.600;2022-08-20T06:57:24;3.50;;;2.40;;
33188;SDS011;52601;53.070;10.600;2022-08-20T07:00:11;3.13;;;2.42;;
33188;SDS011;52601;53.070;10.600;2022-08-20T07:02:59;7.25;;;2.90;;
33188;SDS011;52601;53.070;10.600;2022-08-20T07:08:31;4.43;;;2.60;;
33188;SDS011;52601;53.070;10.600;2022-08-20T07:11:16;5.73;;;2.80;;
33188;SDS011;52601;53.070;10.600;2022-08-20T07:14:02;2.95;;;2.10;;
33188;SDS011;52601;53.070;10.600;2022-08-20T07:16:49;5.18;;;3.03;;
33188;SDS011;52601;53.070;10.600;2022-08-20T07:19:35;5.45;;;1.98;;
33188;SDS011;52601;53.070;10.600;2022-08-20T07:22:20;2.17;;;1.80;;
33188;SDS011;52601;53.070;10.600;2022-08-20T07:25:08;2.67;;;1.90;;
33188;SDS011;52601;53.070;10.600;2022-08-20T07:27:59;2.20;;;1.75;;
33188;SDS011;52601;53.070;10.600;2022-08-20T07:30:46;1.45;;;1.33;;
33188;SDS011;52601;53.070;10.600;2022-08-20T07:34:00;3.35;;;2.08;;
33188;SDS011;52601;53.070;10.600;2022-08-20T07:36:47;2.88;;;1.48;;
33188;SDS011;52601;53.070;10.600;2022-08-20T07:39:33;2.15;;;1.38;;
33188;SDS011;52601;53.070;10.600;2022-08-20T07:42:19;1.92;;;1.50;;
33188;SDS011;52601;53.070;10.600;2022-08-20T07:45:06;2.43;;;1.33;;
33188;SDS011;52601;53.070;10.600;2022-08-20T07:47:54;2.03;;;1.50;;
33188;SDS011;52601;53.070;10.600;2022-08-20T07:50:51;3.35;;;1.35;;
33188;SDS011;52601;53.070;10.600;2022-08-20T07:53:39;2.85;;;1.25;;
33188;SDS011;52601;53.070;10.600;2022-08-20T07:56:25;1.48;;;1.38;;
33188;SDS011;52601;53.070;10.600;2022-08-20T08:01:57;1.15;;;0.90;;
33188;SDS011;52601;53.070;10.600;2022-08-20T08:04:43;2.35;;;1.17;;
33188;SDS011;52601;53.070;10.600;2022-08-20T08:10:17;1.88;;;1.20;;
33188;SDS011;52601;53.070;10.600;2022-08-20T08:13:06;1.17;;;1.05;;
33188;SDS011;52601;53.070;10.600;2022-08-20T08:15:53;1.52;;;0.90;;
33188;SDS011;52601;53.070;10.600;2022-08-20T08:18:44;1.17;;;0.95;;
33188;SDS011;52601;53.070;10.600;2022-08-20T08:21:33;13.75;;;2.85;;
33188;SDS011;52601;53.070;10.600;2022-08-20T08:24:19;2.67;;;1.25;;
33188;SDS011;52601;53.070;10.600;2022-08-20T08:27:10;1.48;;;1.00;;
33188;SDS011;52601;53.070;10.600;2022-08-20T08:29:55;3.72;;;1.30;;
33188;SDS011;52601;53.070;10.600;2022-08-20T08:32:41;8.27;;;1.53;;
33188;SDS011;52601;53.070;10.600;2022-08-20T08:35:47;7.07;;;1.42;;
33188;SDS011;52601;53.070;10.600;2022-08-20T08:38:33;1.83;;;0.80;;
33188;SDS011;52601;53.070;10.600;2022-08-20T08:41:33;2.65;;;1.10;;
33188;SDS011;52601;53.070;10.600;2022-08-20T08:44:26;1.05;;;0.80;;
33188;SDS011;52601;53.070;10.600;2022-08-20T08:47:18;6.68;;;1.60;;
33188;SDS011;52601;53.070;10.600;2022-08-20T08:50:15;11.68;;;2.80;;
33188;SDS011;52601;53.070;10.600;2022-08-20T08:53:36;4.20;;;1.30;;
33188;SDS011;52601;53.070;10.600;2022-08-20T08:56:27;2.47;;;1.00;;
33188;SDS011;52601;53.070;10.600;2022-08-20T08:59:13;8.38;;;1.77;;
33188;SDS011;52601;53.070;10.600;2022-08-20T09:01:59;0.68;;;0.65;;
33188;SDS011;52601;53.070;10.600;2022-08-20T09:04:46;0.68;;;0.60;;
33188;SDS011;52601;53.070;10.600;2022-08-20T09:07:35;0.60;;;0.60;;
33188;SDS011;52601;53.070;10.600;2022-08-20T09:10:22;1.42;;;0.70;;
33188;SDS011;52601;53.070;10.600;2022-08-20T09:13:08;1.15;;;1.00;;
33188;SDS011;52601;53.070;10.600;2022-08-20T09:15:53;1.05;;;0.80;;
33188;SDS011;52601;53.070;10.600;2022-08-20T09:18:40;2.42;;;0.80;;
33188;SDS011;52601;53.070;10.600;2022-08-20T09:21:25;2.70;;;0.95;;
33188;SDS011;52601;53.070;10.600;2022-08-20T09:24:11;1.58;;;0.70;;
33188;SDS011;52601;53.070;10.600;2022-08-20T09:26:57;0.88;;;0.88;;
33188;SDS011;52601;53.070;10.600;2022-08-20T09:29:43;1.40;;;0.82;;
33188;SDS011;52601;53.070;10.600;2022-08-20T09:32:32;2.17;;;1.00;;
33188;SDS011;52601;53.070;10.600;2022-08-20T09:35:18;2.13;;;1.00;;
33188;SDS011;52601;53.070;10.600;2022-08-20T09:38:04;0.98;;;0.88;;
33188;SDS011;52601;53.070;10.600;2022-08-20T09:40:49;2.43;;;0.90;;
33188;SDS011;52601;53.070;10.600;2022-08-20T09:43:35;1.55;;;0.80;;
33188;SDS011;52601;53.070;10.600;2022-08-20T09:46:20;0.75;;;0.75;;
33188;SDS011;52601;53.070;10.600;2022-08-20T09:49:11;1.30;;;0.80;;
33188;SDS011;52601;53.070;10.600;2022-08-20T09:51:57;0.63;;;0.63;;
33188;SDS011;52601;53.070;10.600;2022-08-20T09:54:45;1.70;;;0.93;;
33188;SDS011;52601;53.070;10.600;2022-08-20T10:00:16;8.40;;;1.33;;
33188;SDS011;52601;53.070;10.600;2022-08-20T10:03:03;2.95;;;0.93;;
33188;SDS011;52601;53.070;10.600;2022-08-20T10:05:48;2.22;;;1.00;;
33188;SDS011;52601;53.070;10.600;2022-08-20T10:08:34;1.97;;;1.00;;
33188;SDS011;52601;53.070;10.600;2022-08-20T10:11:19;1.33;;;0.97;;
33188;SDS011;52601;53.070;10.600;2022-08-20T10:14:05;0.75;;;0.52;;
33188;SDS011;52601;53.070;10.600;2022-08-20T10:16:56;2.42;;;0.85;;
33188;SDS011;52601;53.070;10.600;2022-08-20T10:19:44;5.57;;;1.35;;
33188;SDS011;52601;53.070;10.600;2022-08-20T10:22:29;1.90;;;0.80;;
33188;SDS011;52601;53.070;10.600;2022-08-20T10:25:16;6.97;;;1.23;;
33188;SDS011;52601;53.070;10.600;2022-08-20T10:28:02;15.90;;;1.80;;
33188;SDS011;52601;53.070;10.600;2022-08-20T10:30:48;1.10;;;0.98;;
33188;SDS011;52601;53.070;10.600;2022-08-20T10:33:34;86.67;;;11.67;;
33188;SDS011;52601;53.070;10.600;2022-08-20T10:36:20;1.73;;;0.90;;
33188;SDS011;52601;53.070;10.600;2022-08-20T10:39:06;1.08;;;0.98;;
33188;SDS011;52601;53.070;10.600;2022-08-20T10:41:52;0.68;;;0.68;;
33188;SDS011;52601;53.070;10.600;2022-08-20T10:44:37;1.98;;;0.63;;
33188;SDS011;52601;53.070;10.600;2022-08-20T10:47:25;1.58;;;0.90;;
33188;SDS011;52601;53.070;10.600;2022-08-20T10:50:13;29.80;;;3.08;;
33188;SDS011;52601;53.070;10.600;2022-08-20T10:53:00;7.60;;;1.40;;
33188;SDS011;52601;53.070;10.600;2022-08-20T10:55:45;4.35;;;1.02;;
33188;SDS011;52601;53.070;10.600;2022-08-20T10:58:31;0.80;;;0.80;;
33188;SDS011;52601;53.070;10.600;2022-08-20T11:01:24;4.63;;;1.00;;
33188;SDS011;52601;53.070;10.600;2022-08-20T11:04:19;1.67;;;0.82;;
33188;SDS011;52601;53.070;10.600;2022-08-20T11:09:55;0.82;;;0.73;;
33188;SDS011;52601;53.070;10.600;2022-08-20T11:15:31;0.73;;;0.70;;
33188;SDS011;52601;53.070;10.600;2022-08-20T11:18:19;1.48;;;0.68;;
33188;SDS011;52601;53.070;10.600;2022-08-20T11:21:05;1.10;;;0.83;;
33188;SDS011;52601;53.070;10.600;2022-08-20T11:23:53;1.35;;;0.90;;
33188;SDS011;52601;53.070;10.600;2022-08-20T11:26:38;16.05;;;1.38;;
33188;SDS011;52601;53.070;10.600;2022-08-20T11:29:24;2.92;;;0.82;;
33188;SDS011;52601;53.070;10.600;2022-08-20T11:32:10;6.97;;;1.10;;
33188;SDS011;52601;53.070;10.600;2022-08-20T11:34:56;1.25;;;0.80;;
33188;SDS011;52601;53.070;10.600;2022-08-20T11:37:41;14.57;;;1.25;;
33188;SDS011;52601;53.070;10.600;2022-08-20T11:40:28;6.10;;;1.40;;
33188;SDS011;52601;53.070;10.600;2022-08-20T11:43:15;0.98;;;0.70;;
33188;SDS011;52601;53.070;10.600;2022-08-20T11:46:02;3.28;;;0.98;;
33188;SDS011;52601;53.070;10.600;2022-08-20T11:48:47;2.22;;;0.88;;
33188;SDS011;52601;53.070;10.600;2022-08-20T11:51:34;9.35;;;1.83;;
33188;SDS011;52601;53.070;10.600;2022-08-20T11:54:34;2.75;;;0.90;;
33188;SDS011;52601;53.070;10.600;2022-08-20T11:57:26;45.20;;;4.65;;
33188;SDS011;52601;53.070;10.600;2022-08-20T12:00:15;1.48;;;0.90;;
33188;SDS011;52601;53.070;10.600;2022-08-20T12:03:04;4.97;;;1.23;;
33188;SDS011;52601;53.070;10.600;2022-08-20T12:05:53;1.63;;;0.95;;
33188;SDS011;52601;53.070;10.600;2022-08-20T12:08:41;3.22;;;0.63;;
33188;SDS011;52601;53.070;10.600;2022-08-20T12:11:27;1.13;;;0.98;;
33188;SDS011;52601;53.070;10.600;2022-08-20T12:14:13;15.90;;;1.85;;
33188;SDS011;52601;53.070;10.600;2022-08-20T12:17:06;1.87;;;1.30;;
33188;SDS011;52601;53.070;10.600;2022-08-20T12:20:05;1.05;;;0.55;;
33188;SDS011;52601;53.070;10.600;2022-08-20T12:22:53;2.53;;;0.60;;
33188;SDS011;52601;53.070;10.600;2022-08-20T12:28:25;0.60;;;0.60;;
33188;SDS011;52601;53.070;10.600;2022-08-20T12:31:11;1.00;;;0.70;;
33188;SDS011;52601;53.070;10.600;2022-08-20T12:33:56;0.50;;;0.50;;
33188;SDS011;52601;53.070;10.600;2022-08-20T12:36:42;2.00;;;0.70;;
33188;SDS011;52601;53.070;10.600;2022-08-20T12:39:27;1.15;;;0.60;;
33188;SDS011;52601;53.070;10.600;2022-08-20T12:42:16;15.27;;;1.65;;
33188;SDS011;52601;53.070;10.600;2022-08-20T12:45:02;5.30;;;1.02;;
33188;SDS011;52601;53.070;10.600;2022-08-20T12:47:49;17.60;;;1.67;;
33188;SDS011;52601;53.070;10.600;2022-08-20T12:50:35;57.90;;;4.18;;
33188;SDS011;52601;53.070;10.600;2022-08-20T12:53:21;0.70;;;0.70;;
33188;SDS011;52601;53.070;10.600;2022-08-20T12:56:07;2.08;;;0.70;;
33188;SDS011;52601;53.070;10.600;2022-08-20T12:58:52;3.00;;;0.80;;
33188;SDS011;52601;53.070;10.600;2022-08-20T13:01:38;71.60;;;4.80;;
33188;SDS011;52601;53.070;10.600;2022-08-20T13:04:23;0.57;;;0.43;;
33188;SDS011;52601;53.070;10.600;2022-08-20T13:07:10;1.35;;;0.60;;
33188;SDS011;52601;53.070;10.600;2022-08-20T13:09:57;0.80;;;0.60;;
33188;SDS011;52601;53.070;10.600;2022-08-20T13:12:44;2.65;;;1.27;;
33188;SDS011;52601;53.070;10.600;2022-08-20T13:15:30;3.20;;;0.87;;
33188;SDS011;52601;53.070;10.600;2022-08-20T13:18:16;1.42;;;0.50;;
33188;SDS011;52601;53.070;10.600;2022-08-20T13:21:02;1.83;;;0.57;;
33188;SDS011;52601;53.070;10.600;2022-08-20T13:23:47;1.77;;;0.75;;
33188;SDS011;52601;53.070;10.600;2022-08-20T13:26:33;1.03;;;0.87;;
33188;SDS011;52601;53.070;10.600;2022-08-20T13:29:19;3.83;;;0.98;;
33188;SDS011;52601;53.070;10.600;2022-08-20T13:32:04;0.85;;;0.63;;
33188;SDS011;52601;53.070;10.600;2022-08-20T13:34:50;2.73;;;0.97;;
33188;SDS011;52601;53.070;10.600;2022-08-20T13:37:36;19.70;;;3.50;;
33188;SDS011;52601;53.070;10.600;2022-08-20T13:40:23;3.20;;;0.85;;
33188;SDS011;52601;53.070;10.600;2022-08-20T13:45:56;1.03;;;0.70;;
33188;SDS011;52601;53.070;10.600;2022-08-20T13:48:41;1.23;;;0.60;;
33188;SDS011;52601;53.070;10.600;2022-08-20T13:51:27;1.15;;;0.68;;
33188;SDS011;52601;53.070;10.600;2022-08-20T13:54:15;6.32;;;0.98;;
33188;SDS011;52601;53.070;10.600;2022-08-20T13:57:11;7.57;;;1.02;;
33188;SDS011;52601;53.070;10.600;2022-08-20T13:59:58;2.70;;;0.90;;
33188;SDS011;52601;53.070;10.600;2022-08-20T14:02:44;2.00;;;0.68;;
33188;SDS011;52601;53.070;10.600;2022-08-20T14:05:30;0.57;;;0.50;;
33188;SDS011;52601;53.070;10.600;2022-08-20T14:08:17;1.35;;;0.88;;
33188;SDS011;52601;53.070;10.600;2022-08-20T14:11:05;1.50;;;0.75;;
33188;SDS011;52601;53.070;10.600;2022-08-20T14:13:56;1.98;;;0.60;;
33188;SDS011;52601;53.070;10.600;2022-08-20T14:16:42;2.67;;;0.82;;
33188;SDS011;52601;53.070;10.600;2022-08-20T14:19:27;1.77;;;1.00;;
33188;SDS011;52601;53.070;10.600;2022-08-20T14:22:13;0.40;;;0.40;;
33188;SDS011;52601;53.070;10.600;2022-08-20T14:25:03;4.18;;;0.80;;
33188;SDS011;52601;53.070;10.600;2022-08-20T14:27:50;1.05;;;0.80;;
33188;SDS011;52601;53.070;10.600;2022-08-20T14:30:37;1.08;;;0.80;;
33188;SDS011;52601;53.070;10.600;2022-08-20T14:33:22;1.90;;;0.70;;
33188;SDS011;52601;53.070;10.600;2022-08-20T14:36:08;0.88;;;0.70;;
33188;SDS011;52601;53.070;10.600;2022-08-20T14:38:53;1.17;;;0.70;;
33188;SDS011;52601;53.070;10.600;2022-08-20T14:41:38;0.70;;;0.50;;
33188;SDS011;52601;53.070;10.600;2022-08-20T14:44:24;0.60;;;0.50;;
33188;SDS011;52601;53.070;10.600;2022-08-20T14:47:14;2.35;;;0.68;;
33188;SDS011;52601;53.070;10.600;2022-08-20T14:50:07;2.40;;;1.25;;
33188;SDS011;52601;53.070;10.600;2022-08-20T14:52:55;2.75;;;0.95;;
33188;SDS011;52601;53.070;10.600;2022-08-20T14:55:41;2.05;;;1.05;;
33188;SDS011;52601;53.070;10.600;2022-08-20T14:58:27;0.70;;;0.70;;
33188;SDS011;52601;53.070;10.600;2022-08-20T15:01:12;4.20;;;1.23;;
33188;SDS011;52601;53.070;10.600;2022-08-20T15:03:58;1.08;;;0.88;;
33188;SDS011;52601;53.070;10.600;2022-08-20T15:06:44;1.48;;;1.27;;
33188;SDS011;52601;53.070;10.600;2022-08-20T15:09:31;1.00;;;0.60;;
33188;SDS011;52601;53.070;10.600;2022-08-20T15:12:18;2.15;;;0.75;;
33188;SDS011;52601;53.070;10.600;2022-08-20T15:15:05;2.10;;;0.50;;
33188;SDS011;52601;53.070;10.600;2022-08-20T15:18:00;1.15;;;0.90;;
33188;SDS011;52601;53.070;10.600;2022-08-20T15:20:45;1.88;;;1.17;;
33188;SDS011;52601;53.070;10.600;2022-08-20T15:23:31;4.95;;;0.88;;
33188;SDS011;52601;53.070;10.600;2022-08-20T15:26:16;1.38;;;0.35;;
33188;SDS011;52601;53.070;10.600;2022-08-20T15:29:02;1.30;;;0.70;;
33188;SDS011;52601;53.070;10.600;2022-08-20T15:31:48;1.95;;;0.63;;
33188;SDS011;52601;53.070;10.600;2022-08-20T15:34:34;2.45;;;0.82;;
33188;SDS011;52601;53.070;10.600;2022-08-20T15:37:22;1.65;;;0.68;;
33188;SDS011;52601;53.070;10.600;2022-08-20T15:40:09;6.25;;;2.55;;
33188;SDS011;52601;53.070;10.600;2022-08-20T15:42:56;2.63;;;1.10;;
33188;SDS011;52601;53.070;10.600;2022-08-20T15:45:43;3.22;;;1.00;;
33188;SDS011;52601;53.070;10.600;2022-08-20T15:48:34;4.25;;;2.47;;
33188;SDS011;52601;53.070;10.600;2022-08-20T15:54:18;2.90;;;1.25;;
33188;SDS011;52601;53.070;10.600;2022-08-20T15:57:27;3.05;;;1.30;;
33188;SDS011;52601;53.070;10.600;2022-08-20T16:00:48;1.05;;;0.52;;
33188;SDS011;52601;53.070;10.600;2022-08-20T16:06:32;1.38;;;0.50;;
33188;SDS011;52601;53.070;10.600;2022-08-20T16:12:32;2.70;;;1.05;;
33188;SDS011;52601;53.070;10.600;2022-08-20T16:15:29;2.60;;;0.60;;
33188;SDS011;52601;53.070;10.600;2022-08-20T16:18:20;4.28;;;1.27;;
33188;SDS011;52601;53.070;10.600;2022-08-20T16:21:13;2.42;;;1.52;;
33188;SDS011;52601;53.070;10.600;2022-08-20T16:24:01;12.95;;;5.38;;
33188;SDS011;52601;53.070;10.600;2022-08-20T16:27:06;5.10;;;2.67;;
33188;SDS011;52601;53.070;10.600;2022-08-20T16:30:04;13.60;;;7.43;;
33188;SDS011;52601;53.070;10.600;2022-08-20T16:32:55;12.77;;;9.02;;
33188;SDS011;52601;53.070;10.600;2022-08-20T16:35:49;9.90;;;6.32;;
33188;SDS011;52601;53.070;10.600;2022-08-20T16:38:39;11.38;;;8.23;;
33188;SDS011;52601;53.070;10.600;2022-08-20T16:41:32;12.25;;;5.57;;
33188;SDS011;52601;53.070;10.600;2022-08-20T16:44:32;14.45;;;7.72;;
33188;SDS011;52601;53.070;10.600;2022-08-20T16:47:24;6.60;;;4.18;;
33188;SDS011;52601;53.070;10.600;2022-08-20T16:50:21;4.20;;;2.25;;
33188;SDS011;52601;53.070;10.600;2022-08-20T16:53:11;1.13;;;0.60;;
33188;SDS011;52601;53.070;10.600;2022-08-20T16:56:02;3.42;;;1.45;;
33188;SDS011;52601;53.070;10.600;2022-08-20T16:58:47;0.70;;;0.40;;
33188;SDS011;52601;53.070;10.600;2022-08-20T17:01:33;4.38;;;1.13;;
33188;SDS011;52601;53.070;10.600;2022-08-20T17:07:08;0.65;;;0.50;;
33188;SDS011;52601;53.070;10.600;2022-08-20T17:10:11;3.78;;;1.20;;
33188;SDS011;52601;53.070;10.600;2022-08-20T17:12:58;3.55;;;1.27;;
33188;SDS011;52601;53.070;10.600;2022-08-20T17:15:52;2.38;;;1.17;;
33188;SDS011;52601;53.070;10.600;2022-08-20T17:18:47;2.95;;;1.08;;
33188;SDS011;52601;53.070;10.600;2022-08-20T17:21:37;1.40;;;0.40;;